sensor_id;sensor_type;location;lat;lon;timestamp;P1;durP1;ratioP1;P2;durP2;ratioP2
27383;SDS011;14851;51.166;4.760;2022-10-16T19:05:19;4.10;;;1.20;;
27383;SDS011;14851;51.166;4.760;2022-10-16T19:13:43;7.57;;;5.05;;
27383;SDS011;14851;51.166;4.760;2022-10-16T19:16:34;9.20;;;5.70;;
27383;SDS011;14851;51.166;4.760;2022-10-16T19:19:26;11.65;;;6.53;;
27383;SDS011;14851;51.166;4.760;2022-10-16T19:21:52;10.32;;;6.50;;
27383;SDS011;14851;51.166;4.760;2022-10-16T19:24:36;8.35;;;6.55;;
27383;SDS011;14851;51.166;4.760;2022-10-16T19:27:10;12.60;;;7.90;;
27383;SDS011;14851;51.166;4.760;2022-10-16T19:29:39;12.45;;;7.20;;
27383;SDS011;14851;51.166;4.760;2022-10-16T19:32:11;11.70;;;7.40;;
27383;SDS011;14851;51.166;4.760;2022-10-16T19:34:42;10.98;;;7.00;;
27383;SDS011;14851;51.166;4.760;2022-10-16T19:37:13;10.13;;;7.88;;
27383;SDS011;14851;51.166;4.760;2022-10-16T19:39:40;12.52;;;7.75;;
27383;SDS011;14851;51.166;4.760;2022-10-16T19:42:29;18.35;;;7.85;;
27383;SDS011;14851;51.166;4.760;2022-10-16T19:45:01;11.63;;;8.07;;
27383;SDS011;14851;51.166;4.760;2022-10-16T19:47:50;13.52;;;7.93;;
27383;SDS011;14851;51.166;4.760;2022-10-16T19:50:36;14.27;;;8.48;;
27383;SDS011;14851;51.166;4.760;2022-10-16T19:53:17;15.38;;;8.23;;
27383;SDS011;14851;51.166;4.760;2022-10-16T19:55:43;18.42;;;8.95;;
27383;SDS011;14851;51.166;4.760;2022-10-16T20:01:02;11.40;;;8.70;;
27383;SDS011;14851;51.166;4.760;2022-10-16T20:03:28;16.00;;;8.95;;
27383;SDS011;14851;51.166;4.760;2022-10-16T20:05:56;11.77;;;8.00;;
27383;SDS011;14851;51.166;4.760;2022-10-16T20:08:30;13.20;;;9.32;;
27383;SDS011;14851;51.166;4.760;2022-10-16T20:11:01;11.27;;;8.45;;
27383;SDS011;14851;51.166;4.760;2022-10-16T20:13:28;14.02;;;9.35;;
27383;SDS011;14851;51.166;4.760;2022-10-16T20:15:56;13.57;;;8.95;;
27383;SDS011;14851;51.166;4.760;2022-10-16T20:18:23;15.50;;;9.35;;
27383;SDS011;14851;51.166;4.760;2022-10-16T20:20:58;13.02;;;9.20;;
27383;SDS011;14851;51.166;4.760;2022-10-16T20:23:45;14.40;;;9.77;;
27383;SDS011;14851;51.166;4.760;2022-10-16T20:26:13;12.75;;;9.63;;
27383;SDS011;14851;51.166;4.760;2022-10-16T20:28:42;15.18;;;9.80;;
27383;SDS011;14851;51.166;4.760;2022-10-16T20:31:11;15.90;;;12.18;;
27383;SDS011;14851;51.166;4.760;2022-10-16T20:33:44;17.92;;;13.02;;
27383;SDS011;14851;51.166;4.760;2022-10-16T20:36:23;15.30;;;12.75;;
27383;SDS011;14851;51.166;4.760;2022-10-16T20:38:50;17.55;;;12.50;;
27383;SDS011;14851;51.166;4.760;2022-10-16T20:41:17;16.42;;;13.10;;
27383;SDS011;14851;51.166;4.760;2022-10-16T20:43:45;16.17;;;13.70;;
27383;SDS011;14851;51.166;4.760;2022-10-16T20:46:14;15.52;;;13.88;;
27383;SDS011;14851;51.166;4.760;2022-10-16T20:48:42;15.30;;;12.95;;
27383;SDS011;14851;51.166;4.760;2022-10-16T20:53:45;19.95;;;12.73;;
27383;SDS011;14851;51.166;4.760;2022-10-16T20:56:14;15.52;;;12.32;;
27383;SDS011;14851;51.166;4.760;2022-10-16T20:58:42;17.65;;;13.32;;
27383;SDS011;14851;51.166;4.760;2022-10-16T21:01:09;16.88;;;12.68;;
27383;SDS011;14851;51.166;4.760;2022-10-16T21:03:57;12.57;;;10.57;;
27383;SDS011;14851;51.166;4.760;2022-10-16T21:06:26;13.18;;;11.40;;
27383;SDS011;14851;51.166;4.760;2022-10-16T21:08:52;13.55;;;8.98;;
27383;SDS011;14851;51.166;4.760;2022-10-16T21:11:19;12.70;;;11.27;;
27383;SDS011;14851;51.166;4.760;2022-10-16T21:13:47;14.68;;;11.70;;
27383;SDS011;14851;51.166;4.760;2022-10-16T21:16:15;18.20;;;10.73;;
27383;SDS011;14851;51.166;4.760;2022-10-16T21:18:43;14.25;;;10.43;;
27383;SDS011;14851;51.166;4.760;2022-10-16T21:21:17;14.90;;;10.90;;
27383;SDS011;14851;51.166;4.760;2022-10-16T21:23:51;20.95;;;11.60;;
27383;SDS011;14851;51.166;4.760;2022-10-16T21:26:19;20.23;;;11.10;;
27383;SDS011;14851;51.166;4.760;2022-10-16T21:28:57;16.45;;;10.85;;
27383;SDS011;14851;51.166;4.760;2022-10-16T21:31:24;14.60;;;10.45;;
27383;SDS011;14851;51.166;4.760;2022-10-16T21:33:54;12.25;;;9.88;;
27383;SDS011;14851;51.166;4.760;2022-10-16T21:36:22;14.65;;;10.00;;
27383;SDS011;14851;51.166;4.760;2022-10-16T21:38:49;12.98;;;9.85;;
27383;SDS011;14851;51.166;4.760;2022-10-16T21:41:24;10.85;;;9.68;;
27383;SDS011;14851;51.166;4.760;2022-10-16T21:43:52;12.30;;;9.75;;
27383;SDS011;14851;51.166;4.760;2022-10-16T21:46:19;13.27;;;9.82;;
27383;SDS011;14851;51.166;4.760;2022-10-16T21:48:51;12.35;;;9.73;;
27383;SDS011;14851;51.166;4.760;2022-10-16T21:51:25;12.80;;;9.63;;
27383;SDS011;14851;51.166;4.760;2022-10-16T21:53:56;10.70;;;9.07;;
27383;SDS011;14851;51.166;4.760;2022-10-16T21:56:23;12.65;;;9.88;;
27383;SDS011;14851;51.166;4.760;2022-10-16T21:58:50;15.15;;;10.10;;
27383;SDS011;14851;51.166;4.760;2022-10-16T22:01:18;13.48;;;9.80;;
27383;SDS011;14851;51.166;4.760;2022-10-16T22:03:47;10.43;;;9.27;;
27383;SDS011;14851;51.166;4.760;2022-10-16T22:06:14;12.82;;;11.20;;
27383;SDS011;14851;51.166;4.760;2022-10-16T22:08:42;14.02;;;10.35;;
27383;SDS011;14851;51.166;4.760;2022-10-16T22:11:12;14.07;;;10.18;;
27383;SDS011;14851;51.166;4.760;2022-10-16T22:13:48;11.80;;;10.43;;
27383;SDS011;14851;51.166;4.760;2022-10-16T22:16:20;11.82;;;9.93;;
27383;SDS011;14851;51.166;4.760;2022-10-16T22:18:47;15.50;;;10.75;;
27383;SDS011;14851;51.166;4.760;2022-10-16T22:21:18;13.52;;;10.95;;
27383;SDS011;14851;51.166;4.760;2022-10-16T22:23:44;13.15;;;11.73;;
27383;SDS011;14851;51.166;4.760;2022-10-16T22:26:16;14.70;;;10.45;;
27383;SDS011;14851;51.166;4.760;2022-10-16T22:28:42;13.98;;;10.73;;
27383;SDS011;14851;51.166;4.760;2022-10-16T22:31:09;14.57;;;10.77;;
27383;SDS011;14851;51.166;4.760;2022-10-16T22:33:36;11.75;;;10.52;;
27383;SDS011;14851;51.166;4.760;2022-10-16T22:36:04;15.02;;;11.35;;
27383;SDS011;14851;51.166;4.760;2022-10-16T22:38:32;14.85;;;10.73;;
27383;SDS011;14851;51.166;4.760;2022-10-16T22:41:00;18.05;;;10.23;;
27383;SDS011;14851;51.166;4.760;2022-10-16T22:43:33;16.92;;;10.43;;
27383;SDS011;14851;51.166;4.760;2022-10-16T22:46:01;15.20;;;10.95;;
27383;SDS011;14851;51.166;4.760;2022-10-16T22:48:32;17.20;;;10.68;;
27383;SDS011;14851;51.166;4.760;2022-10-16T22:51:03;11.65;;;10.30;;
27383;SDS011;14851;51.166;4.760;2022-10-16T22:55:56;11.27;;;9.30;;
27383;SDS011;14851;51.166;4.760;2022-10-16T22:58:23;15.75;;;11.70;;
27383;SDS011;14851;51.166;4.760;2022-10-16T23:00:59;17.73;;;11.20;;
27383;SDS011;14851;51.166;4.760;2022-10-16T23:03:26;16.85;;;9.35;;
27383;SDS011;14851;51.166;4.760;2022-10-16T23:05:53;14.85;;;10.95;;
27383;SDS011;14851;51.166;4.760;2022-10-16T23:08:19;16.05;;;12.05;;
27383;SDS011;14851;51.166;4.760;2022-10-16T23:10:46;19.45;;;12.45;;
27383;SDS011;14851;51.166;4.760;2022-10-16T23:13:14;13.35;;;11.98;;
27383;SDS011;14851;51.166;4.760;2022-10-16T23:15:42;16.73;;;13.60;;
27383;SDS011;14851;51.166;4.760;2022-10-16T23:20:39;17.92;;;15.98;;
27383;SDS011;14851;51.166;4.760;2022-10-16T23:23:06;18.35;;;16.45;;
27383;SDS011;14851;51.166;4.760;2022-10-16T23:25:32;16.65;;;14.77;;
27383;SDS011;14851;51.166;4.760;2022-10-16T23:27:59;18.40;;;16.30;;
27383;SDS011;14851;51.166;4.760;2022-10-16T23:30:28;19.92;;;17.63;;
27383;SDS011;14851;51.166;4.760;2022-10-16T23:32:55;21.20;;;16.58;;
27383;SDS011;14851;51.166;4.760;2022-10-16T23:35:21;20.42;;;18.20;;
27383;SDS011;14851;51.166;4.760;2022-10-16T23:37:47;23.75;;;18.58;;
27383;SDS011;14851;51.166;4.760;2022-10-16T23:40:16;20.58;;;18.38;;
27383;SDS011;14851;51.166;4.760;2022-10-16T23:42:43;20.23;;;18.08;;
27383;SDS011;14851;51.166;4.760;2022-10-16T23:45:12;22.83;;;19.55;;
27383;SDS011;14851;51.166;4.760;2022-10-16T23:47:38;22.52;;;18.45;;
27383;SDS011;14851;51.166;4.760;2022-10-16T23:50:06;19.23;;;17.05;;
27383;SDS011;14851;51.166;4.760;2022-10-16T23:52:34;19.48;;;16.17;;
27383;SDS011;14851;51.166;4.760;2022-10-16T23:55:00;22.17;;;17.45;;
27383;SDS011;14851;51.166;4.760;2022-10-16T23:57:26;29.88;;;17.88;;
27383;SDS011;14851;51.166;4.760;2022-10-16T23:59:54;19.50;;;15.07;;
